Terminal Aerodrome Forecast
Issued by NWS

Home | Current Version | Previous Version | Text Only | Print | Product List | Glossary On
Versions: 1 2 3 4 5 6 7 8 9 10 11 12 13
000
FTUS45 KRIW 142300
TAFCPR
TAF
KCPR 142321Z 1500/1524 02014KT P6SM SCT250
     FM150200 04010KT P6SM SCT250
     FM151000 VRB04KT P6SM SCT250=

USA.gov is the U.S. government's official web portal to all federal, state and local government web resources and services.